Time;durP1;ratioP1;P1;durP2;ratioP2;P2;SDS_P1;SDS_P2;PMS_P1;PMS_P2;Temp;Humidity;BMP_temperature;BMP_pressure;BME280_temperature;BME280_humidity;BME280_pressure;Samples;Min_cycle;Max_cycle;Signal;HPM_P1;HPM_P2
2022/06/07 00:00:21;;;;;;;1.60;0.50;;;;;;;13.97;68.34;100635.90;107168;1286;61058;-85
2022/06/07 00:02:48;;;;;;;2.80;0.50;;;;;;;14.03;67.59;100636.39;106988;1287;76113;-83
2022/06/07 00:05:15;;;;;;;0.60;0.40;;;;;;;14.08;67.36;100632.91;107338;1287;71256;-84
2022/06/07 00:07:43;;;;;;;1.30;0.40;;;;;;;14.10;67.34;100638.34;106993;1287;74658;-83
2022/06/07 00:10:10;;;;;;;2.80;0.50;;;;;;;14.11;66.52;100635.89;106752;1288;61839;-84
2022/06/07 00:12:37;;;;;;;1.10;0.30;;;;;;;14.12;66.01;100635.19;106979;1288;60330;-83
2022/06/07 00:15:08;;;;;;;1.40;0.30;;;;;;;14.11;65.49;100632.15;106920;1287;76379;-84
2022/06/07 00:17:35;;;;;;;0.40;0.30;;;;;;;14.10;66.18;100628.08;106847;1286;72842;-84
2022/06/07 00:20:05;;;;;;;0.80;0.20;;;;;;;14.03;66.52;100626.58;106947;1287;75003;-85
2022/06/07 00:22:32;;;;;;;0.70;0.40;;;;;;;13.99;66.43;100623.52;106974;1287;62738;-84
2022/06/07 00:25:00;;;;;;;0.30;0.30;;;;;;;13.95;66.97;100622.00;106970;1287;61315;-84
2022/06/07 00:27:27;;;;;;;2.40;0.40;;;;;;;13.87;67.92;100621.79;106982;1287;74522;-84
2022/06/07 00:29:57;;;;;;;0.60;0.30;;;;;;;13.76;68.02;100622.80;106951;1287;71943;-84
2022/06/07 00:32:24;;;;;;;0.90;0.30;;;;;;;13.67;68.19;100624.98;107190;1287;74497;-84
2022/06/07 00:34:52;;;;;;;1.30;0.40;;;;;;;13.58;68.36;100627.88;106956;1288;63535;-84
2022/06/07 00:37:19;;;;;;;0.40;0.30;;;;;;;13.50;68.88;100626.44;107027;1287;60095;-84
2022/06/07 00:39:46;;;;;;;2.30;0.40;;;;;;;13.43;69.05;100628.56;106813;1287;75736;-84
2022/06/07 00:42:14;;;;;;;2.60;0.30;;;;;;;13.37;69.34;100627.91;106846;1288;71887;-84
2022/06/07 00:44:46;;;;;;;3.80;0.40;;;;;;;13.31;69.68;100628.39;106785;1288;73061;-84
2022/06/07 00:47:20;;;;;;;1.40;0.30;;;;;;;13.24;69.76;100630.04;106857;1287;61957;-85
2022/06/07 00:49:52;;;;;;;0.30;0.20;;;;;;;13.18;69.91;100627.86;107035;1287;61892;-84
2022/06/07 00:52:24;;;;;;;1.30;0.50;;;;;;;13.11;70.24;100623.46;106963;1287;75776;-84
2022/06/07 00:55:01;;;;;;;4.90;2.10;;;;;;;13.03;70.57;100623.95;106803;1287;72861;-85
2022/06/07 00:57:31;;;;;;;1.70;0.60;;;;;;;12.95;71.35;100622.20;107189;1287;73849;-85
2022/06/07 00:59:59;;;;;;;1.40;0.40;;;;;;;12.87;72.34;100624.09;106935;1287;62545;-84
2022/06/07 01:02:29;;;;;;;0.80;0.30;;;;;;;12.77;73.24;100621.56;106856;1288;61463;-85
2022/06/07 01:04:56;;;;;;;0.80;0.40;;;;;;;12.69;74.04;100618.48;106918;1288;72518;-85
2022/06/07 01:13:00;;;;;;;1.00;0.40;;;;;;;12.53;75.23;100618.71;107020;1286;62026;-85
2022/06/07 01:15:41;;;;;;;0.70;0.40;;;;;;;12.51;75.21;100618.44;107042;1287;60385;-86
2022/06/07 01:18:09;;;;;;;2.00;0.40;;;;;;;12.51;75.42;100612.09;106951;1288;73977;-85
2022/06/07 01:20:36;;;;;;;0.80;0.40;;;;;;;12.51;75.16;100611.48;107019;1287;72489;-85
2022/06/07 01:23:04;;;;;;;0.70;0.40;;;;;;;12.52;75.49;100608.30;106998;1287;73908;-85
2022/06/07 01:25:38;;;;;;;0.60;0.40;;;;;;;12.54;75.26;100610.08;107060;1287;62819;-85
2022/06/07 01:28:06;;;;;;;2.30;0.60;;;;;;;12.56;75.11;100604.02;107048;1287;59830;-86
2022/06/07 01:30:33;;;;;;;2.60;0.80;;;;;;;12.57;75.17;100605.64;106953;1288;77086;-85
2022/06/07 01:33:00;;;;;;;2.40;0.80;;;;;;;12.57;75.06;100609.28;107076;1287;71407;-85
2022/06/07 01:35:28;;;;;;;1.50;0.50;;;;;;;12.57;75.21;100608.55;106942;1288;73031;-85
2022/06/07 01:37:55;;;;;;;1.30;0.50;;;;;;;12.58;75.28;100609.35;106948;1287;62169;-85
2022/06/07 01:43:08;;;;;;;0.50;0.40;;;;;;;12.62;75.37;100610.29;107079;1286;74633;-85
2022/06/07 01:45:35;;;;;;;1.50;0.60;;;;;;;12.63;75.34;100610.49;107155;1287;71355;-85
2022/06/07 01:48:08;;;;;;;0.90;0.60;;;;;;;12.65;75.55;100612.11;106895;1287;73037;-86
2022/06/07 01:50:35;;;;;;;3.30;0.70;;;;;;;12.62;75.76;100610.78;106893;1288;62260;-85
2022/06/07 01:53:02;;;;;;;0.80;0.50;;;;;;;12.61;75.76;100605.88;107143;1287;60917;-85
2022/06/07 01:55:32;;;;;;;2.90;0.70;;;;;;;12.59;75.84;100603.77;107154;1287;74591;-86
2022/06/07 01:57:59;;;;;;;1.50;0.70;;;;;;;12.58;75.87;100603.40;107089;1287;71665;-85
2022/06/07 02:00:26;;;;;;;0.80;0.40;;;;;;;12.57;75.86;100600.23;106931;1287;74297;-85
2022/06/07 02:02:54;;;;;;;0.70;0.60;;;;;;;12.58;75.86;100598.41;106942;1287;62329;-85
2022/06/07 02:05:21;;;;;;;1.50;0.70;;;;;;;12.57;75.82;100593.12;106911;1288;60878;-85
2022/06/07 02:07:49;;;;;;;0.90;0.60;;;;;;;12.58;75.71;100592.91;107106;1288;76885;-85
2022/06/07 02:10:16;;;;;;;0.40;0.30;;;;;;;12.58;75.73;100588.30;107042;1287;71419;-85
2022/06/07 02:12:43;;;;;;;1.60;0.50;;;;;;;12.55;75.69;100583.66;106860;1287;73782;-85
2022/06/07 02:15:11;;;;;;;22.70;1.70;;;;;;;12.56;75.79;100583.16;107140;1285;62004;-86
2022/06/07 02:17:38;;;;;;;2.10;0.40;;;;;;;12.54;76.03;100583.23;106912;1288;62077;-85
2022/06/07 02:20:06;;;;;;;0.70;0.40;;;;;;;12.52;76.03;100584.31;107018;1287;75536;-85
2022/06/07 02:22:34;;;;;;;0.90;0.60;;;;;;;12.50;76.27;100581.46;106972;1287;71599;-85
2022/06/07 02:25:13;;;;;;;0.90;0.40;;;;;;;12.48;76.36;100583.30;106886;1288;73539;-85
2022/06/07 02:27:40;;;;;;;1.80;0.70;;;;;;;12.47;76.49;100583.93;106951;1288;60990;-85
2022/06/07 02:30:13;;;;;;;1.30;0.50;;;;;;;12.46;76.55;100580.69;107171;1286;62190;-85
2022/06/07 02:32:43;;;;;;;2.00;0.70;;;;;;;12.47;76.82;100582.26;107196;1287;75367;-85
2022/06/07 02:35:20;;;;;;;1.00;0.50;;;;;;;12.46;76.69;100584.42;107174;1287;69847;-86
2022/06/07 02:37:53;;;;;;;1.30;0.70;;;;;;;12.46;76.65;100580.23;107080;1287;73214;-85
2022/06/07 02:40:29;;;;;;;1.10;0.50;;;;;;;12.45;76.95;100581.55;107163;1287;63580;-85
2022/06/07 02:42:57;;;;;;;1.00;0.50;;;;;;;12.44;77.07;100577.80;106930;1288;60355;-86
2022/06/07 02:45:24;;;;;;;1.30;0.50;;;;;;;12.44;77.14;100580.80;107073;1287;74330;-85
2022/06/07 02:47:52;;;;;;;5.10;0.80;;;;;;;12.43;76.91;100577.51;107121;1288;71327;-85
2022/06/07 02:50:19;;;;;;;0.90;0.60;;;;;;;12.43;77.00;100580.70;107010;1287;74459;-86
2022/06/07 02:52:49;;;;;;;0.80;0.60;;;;;;;12.44;77.03;100582.60;106915;1288;61966;-86
2022/06/07 02:55:16;;;;;;;1.50;0.60;;;;;;;12.45;76.87;100580.52;106939;1287;60526;-86
2022/06/07 02:57:47;;;;;;;2.80;0.90;;;;;;;12.47;76.93;100578.70;107176;1287;74164;-87
2022/06/07 03:00:20;;;;;;;0.80;0.70;;;;;;;12.49;76.85;100578.23;107130;1287;71482;-86
2022/06/07 03:02:48;;;;;;;2.70;0.80;;;;;;;12.52;76.70;100579.13;107086;1287;73005;-86
2022/06/07 03:05:18;;;;;;;1.70;0.80;;;;;;;12.53;76.82;100574.83;107072;1287;62310;-86
2022/06/07 03:07:48;;;;;;;2.70;0.50;;;;;;;12.57;76.69;100572.74;107183;1287;61644;-86
2022/06/07 03:10:18;;;;;;;1.30;0.50;;;;;;;12.61;76.35;100571.95;107059;1287;74896;-86
2022/06/07 03:12:45;;;;;;;0.80;0.60;;;;;;;12.63;76.51;100573.94;106487;1290;71985;-85
2022/06/07 03:15:15;;;;;;;0.70;0.30;;;;;;;12.67;76.52;100576.02;106867;1287;73211;-86
2022/06/07 03:17:44;;;;;;;0.90;0.70;;;;;;;12.69;76.52;100572.38;106906;1288;64648;-85
2022/06/07 03:20:13;;;;;;;2.60;0.50;;;;;;;12.71;76.55;100571.77;106859;1288;62159;-85
2022/06/07 03:22:41;;;;;;;1.70;0.60;;;;;;;12.72;76.48;100568.64;106975;1288;76295;-85
2022/06/07 03:25:10;;;;;;;2.90;0.60;;;;;;;12.74;76.72;100569.23;107042;1287;72133;-85
2022/06/07 03:27:39;;;;;;;1.80;0.80;;;;;;;12.77;76.60;100570.45;107260;1286;72002;-85
2022/06/07 03:30:08;;;;;;;1.30;0.80;;;;;;;12.79;76.83;100568.33;106816;1289;62383;-85
2022/06/07 03:32:36;;;;;;;1.30;0.50;;;;;;;12.80;76.87;100560.89;107042;1288;59495;-85
2022/06/07 03:35:03;;;;;;;1.50;1.00;;;;;;;12.79;77.11;100555.10;107376;1287;74444;-85
2022/06/07 03:37:30;;;;;;;1.70;1.10;;;;;;;12.79;77.23;100548.77;107528;1287;71692;-85
2022/06/07 03:39:57;;;;;;;3.80;1.20;;;;;;;12.79;77.81;100547.36;107424;1286;73650;-85
2022/06/07 03:42:24;;;;;;;2.40;1.30;;;;;;;12.78;78.10;100542.89;107241;1287;61979;-85
2022/06/07 03:44:52;;;;;;;2.90;1.10;;;;;;;12.77;78.02;100541.52;107186;1288;60396;-86
2022/06/07 03:47:19;;;;;;;4.50;1.30;;;;;;;12.77;78.19;100544.61;107173;1286;74200;-86
2022/06/07 03:49:47;;;;;;;2.30;1.50;;;;;;;12.76;78.18;100541.90;107236;1287;71484;-86
2022/06/07 03:52:16;;;;;;;3.00;1.50;;;;;;;12.75;78.19;100539.52;106989;1287;74077;-85
2022/06/07 03:54:44;;;;;;;2.80;1.30;;;;;;;12.74;78.31;100542.34;107164;1287;63725;-86
2022/06/07 03:57:16;;;;;;;1.70;1.20;;;;;;;12.73;78.24;100541.20;106950;1287;61631;-86
2022/06/07 03:59:44;;;;;;;3.00;1.30;;;;;;;12.72;78.54;100545.23;107166;1286;75224;-86
2022/06/07 04:02:11;;;;;;;1.60;1.20;;;;;;;12.71;78.45;100546.42;107209;1287;70433;-86
2022/06/07 04:04:40;;;;;;;4.80;1.70;;;;;;;12.71;78.64;100549.27;106844;1288;74893;-85
2022/06/07 04:09:54;;;;;;;1.70;1.10;;;;;;;12.77;78.77;100549.89;106962;1287;62419;-85
2022/06/07 04:12:26;;;;;;;2.10;1.30;;;;;;;12.84;78.78;100556.49;106921;1288;74218;-85
2022/06/07 04:14:54;;;;;;;3.00;1.30;;;;;;;12.92;78.75;100554.52;107095;1287;74062;-86
2022/06/07 04:17:25;;;;;;;1.80;1.40;;;;;;;12.99;78.67;100547.79;106785;1288;74170;-86
2022/06/07 04:19:57;;;;;;;1.90;1.40;;;;;;;13.09;78.40;100550.81;106677;1287;62307;-87
2022/06/07 04:22:24;;;;;;;1.90;1.30;;;;;;;13.18;78.26;100553.21;106738;1286;61305;-86
2022/06/07 04:24:54;;;;;;;1.80;1.40;;;;;;;13.27;78.09;100556.89;106523;1287;74553;-86
2022/06/07 04:27:31;;;;;;;2.20;1.70;;;;;;;13.35;77.74;100549.81;106576;1287;70272;-85
2022/06/07 04:29:57;;;;;;;1.80;1.20;;;;;;;13.45;77.75;100547.58;106494;1287;74046;-86
2022/06/07 04:32:25;;;;;;;4.10;1.60;;;;;;;13.54;77.57;100548.23;106343;1287;63546;-86
2022/06/07 04:34:52;;;;;;;5.20;1.40;;;;;;;13.62;77.31;100546.09;106678;1287;60802;-86
2022/06/07 04:37:19;;;;;;;4.40;1.60;;;;;;;13.69;77.00;100543.58;106588;1287;74719;-85
2022/06/07 04:39:46;;;;;;;2.80;1.30;;;;;;;13.75;76.88;100541.91;106672;1287;71442;-86
2022/06/07 04:42:13;;;;;;;2.60;1.30;;;;;;;13.79;76.86;100542.75;106624;1286;73838;-86
2022/06/07 04:44:41;;;;;;;2.80;1.50;;;;;;;13.84;76.77;100542.45;107041;1287;63181;-86
2022/06/07 04:47:08;;;;;;;2.80;1.80;;;;;;;13.91;76.74;100540.38;107142;1287;60099;-86
2022/06/07 04:49:38;;;;;;;4.10;2.00;;;;;;;13.97;76.69;100531.52;107168;1287;74114;-85
2022/06/07 04:52:17;;;;;;;3.20;1.60;;;;;;;14.03;76.41;100531.75;107171;1288;71498;-86
2022/06/07 04:54:49;;;;;;;2.10;1.40;;;;;;;14.10;76.07;100534.97;107534;1287;73479;-86
2022/06/07 04:57:16;;;;;;;1.60;1.00;;;;;;;14.17;75.72;100535.05;107300;1286;61780;-87
2022/06/07 04:59:45;;;;;;;2.90;1.90;;;;;;;14.21;75.77;100536.23;107519;1286;60622;-86
2022/06/07 05:02:16;;;;;;;3.00;1.40;;;;;;;14.24;75.56;100533.55;107304;1286;74086;-86
2022/06/07 05:04:45;;;;;;;2.50;1.40;;;;;;;14.28;75.58;100535.25;107458;1287;71492;-86
2022/06/07 05:07:15;;;;;;;2.20;1.60;;;;;;;14.36;75.58;100532.66;107413;1287;73777;-86
2022/06/07 05:09:42;;;;;;;3.30;1.30;;;;;;;14.46;75.58;100534.56;106894;1288;62566;-86
2022/06/07 05:12:09;;;;;;;3.50;1.50;;;;;;;14.54;75.44;100529.70;106963;1288;60200;-84
2022/06/07 05:14:45;;;;;;;3.40;1.70;;;;;;;14.60;74.95;100526.05;106910;1288;75804;-89
2022/06/07 05:17:12;;;;;;;7.10;3.00;;;;;;;14.63;74.95;100524.09;107251;1287;72998;-85
2022/06/07 05:19:40;;;;;;;1.80;1.20;;;;;;;14.66;74.63;100523.68;106932;1287;73018;-85
2022/06/07 05:22:07;;;;;;;2.80;1.50;;;;;;;14.66;74.37;100520.60;107241;1287;62080;-85
2022/06/07 05:24:34;;;;;;;3.50;1.00;;;;;;;14.65;74.47;100518.62;106955;1288;60278;-86
2022/06/07 05:27:07;;;;;;;5.00;1.70;;;;;;;14.62;73.98;100522.81;106993;1288;75513;-85
2022/06/07 05:29:49;;;;;;;3.10;1.30;;;;;;;14.58;74.18;100519.78;107018;1288;69107;-85
2022/06/07 05:32:21;;;;;;;2.20;1.20;;;;;;;14.55;74.33;100519.23;107092;1288;72808;-86
2022/06/07 05:34:51;;;;;;;4.00;1.70;;;;;;;14.56;74.15;100518.42;107439;1287;62256;-86
2022/06/07 05:37:29;;;;;;;4.70;1.30;;;;;;;14.64;74.34;100519.36;106925;1288;60080;-86
2022/06/07 05:39:56;;;;;;;2.30;1.40;;;;;;;14.77;74.20;100521.70;106904;1288;75529;-84
2022/06/07 05:42:23;;;;;;;3.00;1.20;;;;;;;14.88;73.80;100522.05;106856;1288;71421;-84
2022/06/07 05:44:50;;;;;;;3.60;1.50;;;;;;;15.00;73.12;100527.58;106954;1288;72974;-84
2022/06/07 05:47:18;;;;;;;3.50;1.60;;;;;;;15.13;72.29;100526.66;106956;1286;62005;-85
2022/06/07 05:49:47;;;;;;;2.50;1.50;;;;;;;15.24;71.65;100529.11;106898;1287;60848;-85
2022/06/07 05:52:14;;;;;;;5.20;1.80;;;;;;;15.34;71.01;100524.46;107051;1287;75000;-85
2022/06/07 05:54:44;;;;;;;2.50;1.30;;;;;;;15.42;70.62;100524.60;107072;1287;71489;-87
2022/06/07 05:57:11;;;;;;;2.00;1.30;;;;;;;15.51;70.01;100520.87;107092;1287;74350;-85
2022/06/07 05:59:39;;;;;;;2.40;1.30;;;;;;;15.62;69.54;100523.09;106994;1288;62459;-86
2022/06/07 06:02:10;;;;;;;2.70;1.30;;;;;;;15.67;68.83;100523.68;106931;1287;59290;-86
2022/06/07 06:04:44;;;;;;;3.90;1.60;;;;;;;15.71;68.74;100523.48;106973;1286;74275;-87
2022/06/07 06:07:11;;;;;;;3.40;2.20;;;;;;;15.77;68.79;100522.45;107000;1287;72229;-86
2022/06/07 06:12:24;;;;;;;4.10;1.40;;;;;;;16.04;68.02;100528.74;106970;1287;62462;-85
2022/06/07 06:14:51;;;;;;;6.30;1.40;;;;;;;16.17;67.38;100520.76;106897;1288;62057;-86
2022/06/07 06:17:18;;;;;;;2.10;1.40;;;;;;;16.28;66.75;100522.29;106890;1288;76008;-86
2022/06/07 06:19:46;;;;;;;5.90;1.20;;;;;;;16.34;66.56;100526.07;106965;1288;72449;-85
2022/06/07 06:22:13;;;;;;;3.50;1.00;;;;;;;16.42;66.36;100525.85;107229;1286;72902;-85
2022/06/07 06:24:40;;;;;;;3.20;1.30;;;;;;;16.55;65.89;100518.91;107169;1287;62270;-85
2022/06/07 06:27:08;;;;;;;6.70;1.60;;;;;;;16.70;66.32;100522.36;106903;1287;60860;-86
2022/06/07 06:29:36;;;;;;;4.50;1.40;;;;;;;16.86;65.66;100520.14;106874;1288;74892;-86
2022/06/07 06:32:03;;;;;;;2.20;1.70;;;;;;;16.97;64.58;100519.89;106897;1288;72974;-86
2022/06/07 06:34:30;;;;;;;2.80;1.30;;;;;;;17.06;64.47;100525.29;106842;1288;71994;-85
2022/06/07 06:36:57;;;;;;;3.90;1.10;;;;;;;17.14;63.97;100524.21;107199;1287;62311;-86
2022/06/07 06:39:25;;;;;;;3.70;1.30;;;;;;;17.19;64.32;100529.18;106954;1286;61384;-85
2022/06/07 06:42:00;;;;;;;1.30;0.60;;;;;;;17.31;64.01;100525.80;106913;1287;75273;-85
2022/06/07 06:44:27;;;;;;;2.40;1.10;;;;;;;17.44;63.19;100532.28;106980;1287;72402;-86
2022/06/07 06:46:54;;;;;;;3.00;1.10;;;;;;;17.50;62.61;100529.33;106893;1287;73030;-86
2022/06/07 06:49:24;;;;;;;3.60;1.30;;;;;;;17.56;62.37;100531.37;107100;1287;60468;-87
2022/06/07 06:54:26;;;;;;;5.00;1.30;;;;;;;17.42;59.56;100533.52;107340;1275;74222;-86
2022/06/07 06:56:54;;;;;;;2.80;1.20;;;;;;;17.40;59.89;100529.13;107201;1274;71064;-85
2022/06/07 06:59:21;;;;;;;5.20;1.70;;;;;;;17.35;58.98;100533.15;106912;1288;71960;-86
2022/06/07 07:01:57;;;;;;;3.90;1.40;;;;;;;17.38;59.28;100526.52;106858;1288;60559;-86
2022/06/07 07:04:24;;;;;;;9.30;1.30;;;;;;;17.44;59.12;100527.09;106632;1290;62645;-85
2022/06/07 07:06:52;;;;;;;4.90;1.40;;;;;;;17.41;57.86;100530.23;106842;1288;75608;-85
2022/06/07 07:09:22;;;;;;;3.20;1.10;;;;;;;17.39;57.66;100526.48;106657;1290;73076;-85
2022/06/07 07:11:56;;;;;;;3.70;1.00;;;;;;;17.41;57.49;100523.50;106898;1288;73924;-86
2022/06/07 07:14:23;;;;;;;5.60;1.70;;;;;;;17.41;56.95;100525.02;106872;1290;60083;-86
2022/06/07 07:17:06;;;;;;;3.30;1.10;;;;;;;17.50;56.86;100532.45;106926;1287;59870;-87
2022/06/07 07:19:43;;;;;;;4.90;1.00;;;;;;;17.56;55.85;100525.91;106973;1288;74814;-87
2022/06/07 07:22:10;;;;;;;2.50;1.00;;;;;;;17.59;56.02;100528.56;107223;1288;71388;-87
2022/06/07 07:24:42;;;;;;;4.00;1.50;;;;;;;17.65;56.16;100531.79;106924;1288;71815;-86
2022/06/07 07:27:12;;;;;;;2.60;1.10;;;;;;;17.71;56.50;100521.89;106876;1288;60746;-86
2022/06/07 07:29:39;;;;;;;2.80;1.10;;;;;;;17.82;56.38;100524.58;106906;1288;62215;-86
2022/06/07 07:32:06;;;;;;;5.80;1.10;;;;;;;17.94;56.17;100523.02;106793;1289;75265;-86
2022/06/07 07:34:33;;;;;;;6.60;1.60;;;;;;;18.03;55.21;100519.02;106871;1288;71386;-86
2022/06/07 07:37:00;;;;;;;3.00;1.00;;;;;;;18.09;54.69;100507.66;106505;1290;72636;-84
2022/06/07 07:39:27;;;;;;;2.00;0.70;;;;;;;18.19;53.36;100510.23;106994;1287;60756;-83
2022/06/07 07:41:55;;;;;;;3.60;1.00;;;;;;;18.26;52.29;100507.35;106763;1278;60358;-83
2022/06/07 07:44:27;;;;;;;5.40;1.20;;;;;;;18.34;52.76;100501.11;107144;1285;74625;-83
2022/06/07 07:46:55;;;;;;;1.60;0.70;;;;;;;18.49;52.68;100506.34;107202;1287;71199;-83
2022/06/07 07:49:23;;;;;;;4.30;1.80;;;;;;;18.58;51.26;100512.05;107213;1287;73810;-83
2022/06/07 07:51:52;;;;;;;2.50;0.90;;;;;;;18.66;49.74;100504.59;107050;1287;60684;-84
2022/06/07 07:54:20;;;;;;;2.10;0.80;;;;;;;18.79;49.73;100500.79;107065;1287;61635;-85
2022/06/07 07:56:48;;;;;;;3.50;1.10;;;;;;;18.92;48.58;100508.08;106910;1287;74181;-84
2022/06/07 07:59:16;;;;;;;2.40;1.00;;;;;;;19.00;48.04;100512.88;107048;1287;71462;-84
2022/06/07 08:01:43;;;;;;;2.80;0.90;;;;;;;19.09;47.49;100506.83;106887;1287;73081;-83
2022/06/07 08:04:10;;;;;;;2.80;0.80;;;;;;;19.15;47.11;100516.52;106897;1287;60753;-83
2022/06/07 08:06:38;;;;;;;4.90;0.80;;;;;;;19.22;47.03;100503.61;107033;1287;62315;-83
2022/06/07 08:09:08;;;;;;;3.10;1.60;;;;;;;19.28;47.36;100509.27;107171;1287;74411;-83
2022/06/07 08:11:37;;;;;;;1.40;0.80;;;;;;;19.41;47.33;100508.14;107066;1287;72552;-83
2022/06/07 08:14:07;;;;;;;4.20;1.10;;;;;;;19.45;47.33;100511.24;107185;1287;73998;-83
2022/06/07 08:16:37;;;;;;;2.70;0.90;;;;;;;19.43;47.04;100494.73;107061;1287;61954;-83
2022/06/07 08:19:08;;;;;;;2.40;0.90;;;;;;;19.56;47.35;100493.96;106976;1287;62015;-82
2022/06/07 08:21:36;;;;;;;5.40;1.90;;;;;;;19.64;46.39;100488.10;107129;1287;73874;-82
2022/06/07 08:24:04;;;;;;;1.60;0.60;;;;;;;19.57;45.50;100487.91;107136;1286;71395;-80
2022/06/07 08:26:31;;;;;;;2.10;1.00;;;;;;;19.60;45.76;100488.44;107137;1287;74256;-82
2022/06/07 08:28:58;;;;;;;4.80;1.40;;;;;;;19.78;45.62;100492.00;106905;1287;61355;-82
2022/06/07 08:39:43;;;;;;;3.50;1.40;;;;;;;20.56;42.01;100479.94;107207;1284;60605;-81
2022/06/07 08:42:15;;;;;;;3.20;1.10;;;;;;;20.72;41.79;100482.73;106779;1284;73338;-80
2022/06/07 08:44:45;;;;;;;3.70;0.90;;;;;;;20.81;40.66;100483.95;106781;1284;72682;-79
2022/06/07 08:47:25;;;;;;;1.70;0.70;;;;;;;21.02;40.94;100479.43;106867;1284;425174;-82
2022/06/07 08:49:55;;;;;;;2.80;1.20;;;;;;;21.33;40.79;100484.25;107558;1282;62155;-81
2022/06/07 08:52:26;;;;;;;3.20;0.90;;;;;;;21.53;39.83;100481.80;107047;1284;60589;-80
2022/06/07 08:54:58;;;;;;;2.60;0.80;;;;;;;21.70;38.94;100474.48;107219;1282;72612;-81
2022/06/07 08:57:37;;;;;;;2.50;0.80;;;;;;;21.63;39.02;100478.79;107220;1282;71232;-81
2022/06/07 09:00:14;;;;;;;2.20;0.70;;;;;;;21.69;39.37;100482.09;107132;1283;73190;-80
2022/06/07 09:03:19;;;;;;;2.00;0.50;;;;;;;21.83;39.34;100479.35;107317;1282;60648;-81
2022/06/07 09:06:02;;;;;;;3.00;1.60;;;;;;;21.99;39.54;100474.44;107353;1283;61687;-81
2022/06/07 09:08:44;;;;;;;3.50;1.30;;;;;;;22.12;39.37;100478.72;107031;1283;75075;-80
2022/06/07 09:14:05;;;;;;;2.50;0.70;;;;;;;21.98;40.51;100476.92;106958;1283;74950;-80
2022/06/07 09:16:42;;;;;;;2.80;1.30;;;;;;;22.05;41.17;100485.25;107190;1282;62036;-81
2022/06/07 09:19:11;;;;;;;1.70;0.50;;;;;;;21.99;40.44;100484.98;107261;1284;61741;-81
2022/06/07 09:21:42;;;;;;;2.30;0.70;;;;;;;21.88;41.03;100476.40;106781;1283;74298;-83
2022/06/07 09:24:20;;;;;;;2.80;1.00;;;;;;;21.85;41.49;100472.27;107100;1283;71629;-80
2022/06/07 09:26:47;;;;;;;3.90;1.30;;;;;;;22.07;40.84;100478.46;107063;1281;72799;-80
2022/06/07 09:29:21;;;;;;;2.60;0.70;;;;;;;22.13;40.52;100472.45;107012;1283;59616;-81
2022/06/07 09:31:50;;;;;;;1.40;0.70;;;;;;;22.17;40.36;100473.63;106944;1282;59695;-81
2022/06/07 09:34:29;;;;;;;2.90;1.00;;;;;;;22.39;41.21;100468.22;106988;1283;72230;-81
2022/06/07 09:37:05;;;;;;;4.60;2.20;;;;;;;22.54;39.53;100463.83;107338;1283;71644;-81
2022/06/07 09:39:38;;;;;;;2.50;0.80;;;;;;;22.53;40.19;100472.09;106829;1283;73059;-81
2022/06/07 09:42:18;;;;;;;4.20;0.90;;;;;;;22.45;40.28;100471.71;107245;1283;60682;-81
2022/06/07 09:45:14;;;;;;;2.70;0.80;;;;;;;22.39;40.18;100475.23;107170;1283;60631;-80
2022/06/07 09:47:41;;;;;;;5.20;1.00;;;;;;;22.34;40.34;100463.25;107150;1283;75118;-80
2022/06/07 09:50:29;;;;;;;3.30;2.00;;;;;;;22.36;40.11;100464.78;107122;1283;72250;-79
2022/06/07 09:52:59;;;;;;;2.50;1.40;;;;;;;22.35;41.13;100459.89;107177;1283;74416;-80
2022/06/07 09:55:37;;;;;;;2.90;1.40;;;;;;;22.37;40.29;100460.73;107555;1280;60666;-82
2022/06/07 09:58:34;;;;;;;1.20;0.40;;;;;;;22.47;39.51;100462.60;107550;1277;61060;-80
2022/06/07 10:01:22;;;;;;;1.80;0.60;;;;;;;22.45;38.32;100465.07;107938;1274;73765;-80
2022/06/07 10:03:56;;;;;;;2.20;0.70;;;;;;;22.59;38.55;100463.77;107587;1274;71202;-79
2022/06/07 10:06:31;;;;;;;4.30;0.80;;;;;;;22.82;38.11;100462.48;107117;1275;74002;-80
2022/06/07 10:09:22;;;;;;;2.60;0.60;;;;;;;22.94;37.50;100465.52;107967;1273;62048;-81
2022/06/07 10:12:03;;;;;;;3.50;0.70;;;;;;;22.87;37.40;100464.30;108064;1274;60660;-80
2022/06/07 10:14:55;;;;;;;1.90;0.60;;;;;;;22.86;37.60;100462.06;108027;1273;73148;-80
2022/06/07 10:17:22;;;;;;;1.00;0.40;;;;;;;23.00;37.83;100469.63;107667;1274;72700;-77
2022/06/07 10:20:09;;;;;;;1.10;0.50;;;;;;;22.96;37.64;100460.56;107854;1274;74763;-80
2022/06/07 10:23:09;;;;;;;2.70;0.70;;;;;;;22.98;37.27;100463.66;107724;1274;61168;-81
2022/06/07 10:25:49;;;;;;;2.90;0.70;;;;;;;22.91;36.92;100469.73;107676;1274;60790;-79
2022/06/07 10:28:38;;;;;;;1.70;0.60;;;;;;;22.83;37.34;100468.92;107446;1273;74255;-81
2022/06/07 10:31:36;;;;;;;2.40;0.80;;;;;;;22.83;36.96;100456.05;107501;1275;72386;-80
2022/06/07 10:34:10;;;;;;;1.70;0.50;;;;;;;22.75;37.36;100456.05;108082;1274;72988;-80
2022/06/07 10:36:58;;;;;;;2.20;0.50;;;;;;;22.78;37.90;100459.48;107692;1273;60453;-80
2022/06/07 10:39:40;;;;;;;1.30;0.60;;;;;;;22.69;37.17;100458.78;108036;1273;61675;-80
2022/06/07 10:42:25;;;;;;;2.70;0.60;;;;;;;22.50;37.00;100462.88;107917;1277;73499;-80
2022/06/07 10:45:11;;;;;;;2.00;0.80;;;;;;;22.39;37.52;100463.02;107592;1274;71579;-81
2022/06/07 10:47:50;;;;;;;1.20;0.50;;;;;;;22.26;38.17;100459.09;107754;1274;74203;-80
2022/06/07 10:53:59;;;;;;;3.60;2.30;;;;;;;22.13;38.95;100459.27;108192;1273;59224;-80
2022/06/07 10:56:34;;;;;;;2.10;0.80;;;;;;;22.14;39.65;100450.52;108123;1274;75432;-80
2022/06/07 10:59:07;;;;;;;1.80;0.70;;;;;;;22.10;39.76;100456.44;107916;1277;72358;-81
2022/06/07 11:01:44;;;;;;;3.30;0.90;;;;;;;22.19;40.65;100448.10;108196;1273;72887;-79
2022/06/07 11:10:31;;;;;;;1.70;0.60;;;;;;;22.46;39.43;100455.98;107969;1273;73257;-79
2022/06/07 11:13:28;;;;;;;3.10;0.60;;;;;;;22.64;39.84;100452.26;107784;1274;71188;-79
2022/06/07 11:16:05;;;;;;;3.50;0.90;;;;;;;22.71;38.70;100458.14;108179;1274;74505;-79
2022/06/07 11:18:32;;;;;;;3.00;0.80;;;;;;;22.79;38.45;100446.45;107841;1273;61572;-79
2022/06/07 11:21:05;;;;;;;2.70;0.80;;;;;;;22.87;38.85;100446.88;107662;1267;59412;-80
2022/06/07 11:23:44;;;;;;;2.10;0.60;;;;;;;22.97;38.86;100446.92;107173;1279;71780;-82
2022/06/07 11:26:24;;;;;;;2.70;0.90;;;;;;;22.95;38.74;100454.02;107549;1279;72015;-82
2022/06/07 11:28:54;;;;;;;4.50;2.00;;;;;;;23.08;39.15;100451.38;107913;1276;74102;-82
2022/06/07 11:31:23;;;;;;;12.30;9.30;;;;;;;23.24;38.99;100447.83;107717;1279;60883;-81
2022/06/07 11:33:50;;;;;;;2.40;0.70;;;;;;;23.40;38.79;100440.69;108110;1276;61195;-82
2022/06/07 11:36:21;;;;;;;3.50;0.90;;;;;;;23.61;38.89;100435.36;107573;1278;73877;-82
2022/06/07 11:38:55;;;;;;;2.80;0.90;;;;;;;23.76;38.68;100428.73;107807;1276;74127;-82
2022/06/07 11:41:37;;;;;;;3.30;0.70;;;;;;;24.04;38.32;100430.27;107903;1277;71905;-82
2022/06/07 11:44:12;;;;;;;3.40;0.90;;;;;;;24.24;37.45;100430.65;107752;1276;61839;-82
2022/06/07 11:46:51;;;;;;;3.80;0.90;;;;;;;24.58;37.89;100427.58;108095;1268;60724;31
2022/06/07 11:49:20;;;;;;;2.40;0.80;;;;;;;24.81;36.84;100433.81;107747;1277;74368;-80
2022/06/07 11:52:00;;;;;;;1.70;0.70;;;;;;;24.79;36.27;100435.55;107837;1278;72467;-80
2022/06/07 11:54:48;;;;;;;2.20;0.70;;;;;;;24.82;36.40;100434.20;107835;1277;73264;-80
2022/06/07 11:57:41;;;;;;;3.50;0.90;;;;;;;24.81;36.31;100423.77;108087;1277;59070;-83
2022/06/07 12:00:16;;;;;;;6.30;0.90;;;;;;;24.84;36.67;100428.81;107921;1277;59974;-82
2022/06/07 12:03:02;;;;;;;2.30;0.80;;;;;;;24.65;37.23;100423.55;107781;1277;72006;-84
2022/06/07 12:05:45;;;;;;;1.60;0.70;;;;;;;24.26;37.76;100439.26;108022;1276;70005;-83
2022/06/07 12:08:28;;;;;;;2.60;0.70;;;;;;;23.86;38.44;100434.50;107951;1277;72768;-83
2022/06/07 12:11:22;;;;;;;2.20;0.80;;;;;;;23.50;38.75;100434.95;107799;1277;61846;-84
2022/06/07 12:14:29;;;;;;;6.70;0.90;;;;;;;23.14;39.54;100433.02;107770;1277;60667;-81